Time;durP1;ratioP1;P1;durP2;ratioP2;P2;SDS_P1;SDS_P2;PMS_P1;PMS_P2;Temp;Humidity;BMP_temperature;BMP_pressure;BME280_temperature;BME280_humidity;BME280_pressure;Samples;Min_cycle;Max_cycle;Signal;HPM_P1;HPM_P2
2023/04/24 00:00:46;;;;;;;1.35;1.10;;;11.80;99.90;;;;;;5094229;28;20030;-53
2023/04/24 00:03:12;;;;;;;1.63;1.00;;;11.70;99.90;;;;;;5093869;28;20099;-54
2023/04/24 00:05:40;;;;;;;1.02;1.00;;;11.70;99.90;;;;;;5094045;28;20047;-52
2023/04/24 00:08:05;;;;;;;2.15;1.20;;;11.70;99.90;;;;;;5094162;28;20107;-55
2023/04/24 00:10:31;;;;;;;2.75;1.40;;;11.60;99.90;;;;;;5093812;28;20102;-54
2023/04/24 00:12:57;;;;;;;1.48;1.02;;;11.60;99.90;;;;;;5094746;28;20518;-48
2023/04/24 00:15:22;;;;;;;0.90;0.90;;;11.60;99.90;;;;;;5077673;28;20419;-50
2023/04/24 00:17:48;;;;;;;2.38;1.30;;;11.60;99.90;;;;;;5077336;28;20062;-54
2023/04/24 00:20:14;;;;;;;1.40;1.17;;;11.60;99.90;;;;;;5095161;28;20067;-51
2023/04/24 00:22:40;;;;;;;3.05;1.42;;;11.70;99.90;;;;;;5076204;28;20507;-51
2023/04/24 00:25:06;;;;;;;3.55;1.38;;;11.60;99.90;;;;;;5093697;28;20040;-54
2023/04/24 00:27:31;;;;;;;6.47;2.05;;;11.60;99.90;;;;;;5093654;28;20024;-51
2023/04/24 00:29:56;;;;;;;2.13;1.63;;;11.60;99.90;;;;;;5093394;28;20032;-53
2023/04/24 00:32:22;;;;;;;4.55;1.77;;;11.60;99.90;;;;;;5093482;28;20031;-54
2023/04/24 00:34:47;;;;;;;1.48;1.38;;;11.60;99.90;;;;;;5093286;28;20028;-51
2023/04/24 00:37:13;;;;;;;1.85;1.73;;;11.60;99.90;;;;;;5093686;28;20095;-55
2023/04/24 00:39:38;;;;;;;4.80;1.50;;;11.60;99.90;;;;;;5075302;28;20460;-54
2023/04/24 00:42:06;;;;;;;1.98;1.85;;;11.60;99.90;;;;;;5093237;28;20030;-53
2023/04/24 00:44:35;;;;;;;3.63;1.70;;;11.60;99.90;;;;;;5075081;28;20035;-55
2023/04/24 00:47:01;;;;;;;5.40;1.75;;;11.60;99.90;;;;;;5093057;28;20032;-52
2023/04/24 00:49:26;;;;;;;2.92;1.67;;;11.50;99.90;;;;;;5074664;28;20024;-54
2023/04/24 00:51:53;;;;;;;3.85;1.42;;;11.50;99.90;;;;;;5092951;28;20479;-51
2023/04/24 00:54:19;;;;;;;4.32;1.27;;;11.50;99.90;;;;;;5092657;28;20028;-52
2023/04/24 00:56:45;;;;;;;1.48;1.40;;;11.50;99.90;;;;;;5092808;28;20020;-51
2023/04/24 00:59:16;;;;;;;3.42;1.70;;;11.40;99.90;;;;;;5092594;28;20429;-52
2023/04/24 01:01:42;;;;;;;2.45;1.70;;;11.50;99.90;;;;;;5092797;28;20023;-53
2023/04/24 01:04:09;;;;;;;2.40;1.40;;;11.50;99.90;;;;;;5092535;28;20395;-53
2023/04/24 01:06:38;;;;;;;5.85;1.42;;;11.50;99.90;;;;;;5092542;28;20452;-53
2023/04/24 01:09:04;;;;;;;2.90;1.20;;;11.50;99.90;;;;;;5092618;28;20440;-55
2023/04/24 01:11:30;;;;;;;2.20;1.40;;;11.50;99.90;;;;;;5092513;28;20062;-52
2023/04/24 01:13:56;;;;;;;2.83;1.50;;;11.50;99.90;;;;;;5091645;28;20518;-53
2023/04/24 01:16:22;;;;;;;2.75;1.52;;;11.50;99.90;;;;;;5092187;28;20031;-55
2023/04/24 01:18:48;;;;;;;2.30;1.40;;;11.50;99.90;;;;;;5092362;28;20028;-52
2023/04/24 01:21:16;;;;;;;5.30;1.40;;;11.50;99.90;;;;;;5092296;28;20072;-53
2023/04/24 01:23:45;;;;;;;2.72;1.90;;;11.40;99.90;;;;;;5092142;28;20111;-53
2023/04/24 01:26:12;;;;;;;3.13;2.00;;;11.40;99.90;;;;;;5092195;28;20026;-56
2023/04/24 01:28:37;;;;;;;3.90;1.60;;;11.30;99.90;;;;;;5074374;28;20435;-53
2023/04/24 01:31:03;;;;;;;1.70;1.60;;;11.30;99.90;;;;;;5092208;28;20067;-53
2023/04/24 01:33:29;;;;;;;3.42;1.80;;;11.20;99.90;;;;;;5092087;28;20024;-53
2023/04/24 01:35:55;;;;;;;4.20;1.73;;;11.20;99.90;;;;;;5092531;28;20055;-55
2023/04/24 01:38:20;;;;;;;2.38;1.60;;;11.20;99.90;;;;;;5092736;28;20379;-52
2023/04/24 01:40:46;;;;;;;2.55;1.55;;;11.20;99.90;;;;;;5073885;28;20020;-51
2023/04/24 01:43:13;;;;;;;3.22;1.38;;;11.20;99.90;;;;;;5091964;28;20143;-52
2023/04/24 01:45:38;;;;;;;3.45;1.33;;;11.30;99.90;;;;;;5073714;28;20053;-54
2023/04/24 01:48:04;;;;;;;4.35;1.38;;;11.30;99.90;;;;;;5092074;28;20148;-53
2023/04/24 01:50:30;;;;;;;2.42;1.40;;;11.30;99.90;;;;;;5091761;28;20483;-53
2023/04/24 01:52:55;;;;;;;1.73;1.40;;;11.40;99.90;;;;;;5073434;28;20463;-49
2023/04/24 01:55:21;;;;;;;6.53;1.60;;;11.40;99.90;;;;;;5091689;28;20051;-52
2023/04/24 01:57:47;;;;;;;3.28;1.10;;;11.50;99.90;;;;;;5091542;28;20016;-53
2023/04/24 02:00:12;;;;;;;3.78;2.22;;;11.60;99.90;;;;;;5092080;28;20123;-53
2023/04/24 02:02:40;;;;;;;1.88;1.10;;;11.60;99.90;;;;;;5073405;28;20039;-50
2023/04/24 02:05:07;;;;;;;3.92;1.33;;;11.60;99.90;;;;;;5091417;28;20028;-50
2023/04/24 02:07:32;;;;;;;1.02;0.90;;;11.60;99.90;;;;;;5091760;28;20495;-50
2023/04/24 02:09:58;;;;;;;2.92;1.33;;;11.70;99.90;;;;;;5091561;28;20085;-51
2023/04/24 02:12:23;;;;;;;2.97;1.00;;;11.70;99.90;;;;;;5073343;28;20030;-46
2023/04/24 02:14:49;;;;;;;5.30;1.17;;;11.70;99.90;;;;;;5073367;28;20078;-49
2023/04/24 02:17:15;;;;;;;1.52;1.17;;;11.70;99.90;;;;;;5091589;28;20438;-52
2023/04/24 02:19:41;;;;;;;2.28;1.17;;;11.70;99.90;;;;;;5091328;28;20020;-54
2023/04/24 02:22:06;;;;;;;1.45;1.10;;;11.80;99.90;;;;;;5073141;28;20028;-51
2023/04/24 02:24:32;;;;;;;1.90;1.20;;;11.70;99.90;;;;;;5091266;28;20103;-52
2023/04/24 02:26:57;;;;;;;2.15;1.15;;;11.70;99.90;;;;;;5095265;28;20445;-50
2023/04/24 02:29:23;;;;;;;2.08;1.08;;;11.60;99.90;;;;;;5095495;28;20099;-50
2023/04/24 02:31:48;;;;;;;2.63;1.10;;;11.60;99.90;;;;;;5095563;28;20028;-54
2023/04/24 02:34:14;;;;;;;5.93;1.60;;;11.50;99.90;;;;;;5095357;28;20291;-50
2023/04/24 02:36:40;;;;;;;3.88;1.30;;;11.50;99.90;;;;;;5095620;28;20016;-49
2023/04/24 02:39:05;;;;;;;1.48;1.00;;;11.40;99.90;;;;;;5077202;28;20111;-52
2023/04/24 02:41:32;;;;;;;4.45;1.30;;;11.50;99.90;;;;;;5095508;28;20028;-50
2023/04/24 02:43:58;;;;;;;2.47;1.02;;;11.50;99.90;;;;;;5095254;28;20043;-53
2023/04/24 02:46:24;;;;;;;1.00;1.00;;;11.50;99.90;;;;;;5095217;28;20017;-52
2023/04/24 02:48:50;;;;;;;3.42;1.67;;;11.50;99.90;;;;;;5077286;28;20188;-49
2023/04/24 02:51:15;;;;;;;3.60;1.33;;;11.60;99.90;;;;;;5095258;28;20151;-52
2023/04/24 02:53:41;;;;;;;1.75;0.82;;;11.60;99.90;;;;;;5095057;28;20119;-54
2023/04/24 02:56:06;;;;;;;4.93;1.38;;;11.60;99.90;;;;;;5095112;28;20026;-54
2023/04/24 02:58:32;;;;;;;2.75;1.17;;;11.60;99.90;;;;;;5095031;28;20050;-53
2023/04/24 03:00:57;;;;;;;1.77;1.15;;;11.60;99.90;;;;;;5095006;28;20028;-54
2023/04/24 03:03:23;;;;;;;5.57;1.30;;;11.60;99.90;;;;;;5095015;28;20028;-53
2023/04/24 03:05:49;;;;;;;1.80;1.10;;;11.60;99.90;;;;;;5095012;28;20484;-56
2023/04/24 03:08:14;;;;;;;1.17;0.93;;;11.60;99.90;;;;;;5095022;28;20107;-51
2023/04/24 03:10:40;;;;;;;1.63;1.15;;;11.50;99.90;;;;;;5094861;28;20024;-53
2023/04/24 03:13:05;;;;;;;1.55;1.02;;;11.50;99.90;;;;;;5076461;28;20032;-54
2023/04/24 03:15:31;;;;;;;2.67;1.27;;;11.50;99.90;;;;;;5094560;28;20020;-54
2023/04/24 03:17:57;;;;;;;1.90;1.40;;;11.40;99.90;;;;;;5076627;28;20020;-49
2023/04/24 03:20:22;;;;;;;1.30;1.20;;;11.40;99.90;;;;;;5076557;28;20048;-50
2023/04/24 03:22:48;;;;;;;2.50;1.00;;;11.30;99.90;;;;;;5094574;28;20024;-53
2023/04/24 03:25:13;;;;;;;1.95;1.40;;;11.30;99.90;;;;;;5094567;28;20372;-54
2023/04/24 03:27:39;;;;;;;1.10;1.00;;;11.30;99.90;;;;;;5076358;28;20123;-54
2023/04/24 03:30:09;;;;;;;1.75;1.20;;;11.30;99.90;;;;;;5094479;28;20070;-51
2023/04/24 03:32:34;;;;;;;1.73;1.10;;;11.30;99.90;;;;;;5094370;28;20031;-53
2023/04/24 03:35:00;;;;;;;2.17;1.05;;;11.20;99.90;;;;;;5094362;28;20024;-54
2023/04/24 03:37:26;;;;;;;1.58;1.08;;;11.20;99.90;;;;;;5093783;28;20373;-54
2023/04/24 03:39:51;;;;;;;1.70;1.15;;;11.20;99.90;;;;;;5094270;28;20023;-53
2023/04/24 03:42:17;;;;;;;3.75;1.23;;;11.20;99.90;;;;;;5094582;28;20861;-53
2023/04/24 03:44:43;;;;;;;3.80;1.40;;;11.20;99.90;;;;;;5094204;28;20071;-55
2023/04/24 03:47:08;;;;;;;11.35;2.53;;;11.20;99.90;;;;;;5094299;28;20084;-53
2023/04/24 03:49:34;;;;;;;10.07;3.45;;;11.20;99.90;;;;;;5094071;28;20079;-54
2023/04/24 03:52:00;;;;;;;1.33;1.10;;;11.10;99.90;;;;;;5094042;28;20031;-50
2023/04/24 03:54:25;;;;;;;2.85;1.15;;;11.00;99.90;;;;;;5093907;28;20032;-54
2023/04/24 03:56:51;;;;;;;2.75;1.73;;;11.10;99.90;;;;;;5093745;28;20028;-53
2023/04/24 03:59:17;;;;;;;1.45;1.35;;;11.00;99.90;;;;;;5075612;28;20031;-51
2023/04/24 04:01:42;;;;;;;1.65;1.42;;;11.00;99.90;;;;;;5093971;28;20020;-55
2023/04/24 04:04:08;;;;;;;1.98;1.40;;;11.00;99.90;;;;;;5093850;28;20036;-50
2023/04/24 04:06:34;;;;;;;2.00;1.08;;;10.90;99.90;;;;;;5094126;28;20051;-54
2023/04/24 04:09:00;;;;;;;1.58;1.08;;;10.90;99.90;;;;;;5093911;28;20047;-52
2023/04/24 04:11:26;;;;;;;1.23;1.13;;;10.80;99.90;;;;;;5075643;28;20468;-49
2023/04/24 04:13:52;;;;;;;3.03;1.10;;;10.80;99.90;;;;;;5093524;28;20381;-49
2023/04/24 04:16:17;;;;;;;1.25;1.15;;;10.70;99.90;;;;;;5093683;28;20032;-51
2023/04/24 04:18:44;;;;;;;2.42;1.42;;;10.70;99.90;;;;;;5093712;28;20024;-55
2023/04/24 04:21:09;;;;;;;4.32;1.20;;;10.70;99.90;;;;;;5093668;28;20030;-52
2023/04/24 04:23:35;;;;;;;1.10;1.10;;;10.60;99.90;;;;;;5093504;28;20028;-53
2023/04/24 04:26:01;;;;;;;1.30;1.30;;;10.60;99.90;;;;;;5093412;28;20139;-50
2023/04/24 04:28:27;;;;;;;1.45;1.27;;;10.60;99.90;;;;;;5093573;28;20028;-51
2023/04/24 04:30:53;;;;;;;2.70;1.00;;;10.60;99.90;;;;;;5093362;28;20541;-47
2023/04/24 04:33:20;;;;;;;3.22;1.42;;;10.60;99.90;;;;;;5093205;28;20028;-50
2023/04/24 04:35:48;;;;;;;1.35;1.35;;;10.50;99.90;;;;;;5093217;28;20020;-51
2023/04/24 04:38:14;;;;;;;1.42;1.33;;;10.40;99.90;;;;;;5093258;28;20020;-51
2023/04/24 04:40:40;;;;;;;1.77;1.55;;;10.40;99.90;;;;;;5093149;28;20046;-51
2023/04/24 04:43:06;;;;;;;1.85;1.55;;;10.40;99.90;;;;;;5093176;28;20063;-52
2023/04/24 04:45:34;;;;;;;1.75;1.58;;;10.40;99.90;;;;;;5075118;28;20031;-49
2023/04/24 04:48:00;;;;;;;2.72;1.70;;;10.40;99.90;;;;;;5093245;28;20031;-48
2023/04/24 04:50:26;;;;;;;2.10;1.90;;;10.30;99.90;;;;;;5092042;28;20028;-52
2023/04/24 04:52:52;;;;;;;2.60;1.50;;;10.30;99.90;;;;;;5074884;28;20467;-49
2023/04/24 04:55:19;;;;;;;2.17;2.08;;;10.40;99.90;;;;;;5092857;28;20031;-54
2023/04/24 04:57:48;;;;;;;1.65;1.55;;;10.60;99.90;;;;;;5093291;28;20111;-51
2023/04/24 05:00:13;;;;;;;2.00;1.90;;;10.70;99.90;;;;;;5092913;28;20103;-54
2023/04/24 05:02:39;;;;;;;3.85;1.63;;;11.00;99.90;;;;;;5074809;28;20119;-53
2023/04/24 05:05:06;;;;;;;2.17;1.60;;;11.30;99.90;;;;;;5092504;28;20028;-55
2023/04/24 05:07:31;;;;;;;3.47;1.40;;;11.40;99.90;;;;;;5092708;28;20048;-53
2023/04/24 05:09:57;;;;;;;2.08;1.60;;;11.60;99.90;;;;;;5092601;28;20107;-52
2023/04/24 05:12:22;;;;;;;1.75;1.63;;;11.70;99.90;;;;;;5074767;28;20029;-51
2023/04/24 05:14:48;;;;;;;2.05;1.95;;;11.80;99.90;;;;;;5092674;28;20096;-54
2023/04/24 05:17:14;;;;;;;2.85;2.00;;;11.80;99.90;;;;;;5092941;28;20035;-53
2023/04/24 05:19:40;;;;;;;2.10;1.88;;;11.80;99.90;;;;;;5092663;28;20345;-54
2023/04/24 05:22:06;;;;;;;2.13;1.70;;;11.90;99.90;;;;;;5092764;28;20020;-53
2023/04/24 05:24:36;;;;;;;2.42;1.88;;;11.90;99.90;;;;;;5092255;28;20086;-53
2023/04/24 05:27:04;;;;;;;1.77;1.67;;;12.20;99.90;;;;;;5092045;28;20553;-52
2023/04/24 05:29:33;;;;;;;3.38;2.30;;;12.40;99.90;;;;;;5092198;28;20092;-52
2023/04/24 05:32:00;;;;;;;2.10;1.63;;;12.30;99.90;;;;;;5092010;28;20023;-53
2023/04/24 05:34:25;;;;;;;2.78;2.08;;;12.20;99.90;;;;;;5091856;28;20016;-52
2023/04/24 05:36:51;;;;;;;1.40;1.30;;;12.30;99.90;;;;;;5092295;28;20077;-51
2023/04/24 05:39:17;;;;;;;2.22;1.80;;;12.70;99.90;;;;;;5091915;28;20020;-53
2023/04/24 05:41:43;;;;;;;2.00;1.35;;;13.30;99.90;;;;;;5092000;28;20446;-51
2023/04/24 05:44:08;;;;;;;5.13;1.65;;;13.90;99.90;;;;;;5099844;22;20036;-52
2023/04/24 05:46:34;;;;;;;2.05;1.88;;;14.20;99.90;;;;;;5053517;28;20112;-55
2023/04/24 05:49:00;;;;;;;1.63;1.52;;;13.80;99.90;;;;;;5071910;28;20499;-49
2023/04/24 05:51:25;;;;;;;3.00;1.73;;;13.30;99.90;;;;;;5072101;28;20510;-54
2023/04/24 05:53:51;;;;;;;2.97;2.38;;;13.10;99.90;;;;;;5071475;28;20541;-54
2023/04/24 05:56:17;;;;;;;1.80;1.55;;;13.50;99.90;;;;;;5071528;28;20029;-53
2023/04/24 05:58:42;;;;;;;3.90;2.05;;;14.00;99.90;;;;;;5071484;28;20095;-55
2023/04/24 06:01:08;;;;;;;4.50;2.60;;;13.90;99.90;;;;;;5071161;28;20029;-51
2023/04/24 06:03:33;;;;;;;3.08;2.38;;;13.70;99.90;;;;;;5071600;28;20037;-53
2023/04/24 06:05:59;;;;;;;2.83;2.20;;;13.50;99.90;;;;;;5071345;28;20021;-55
2023/04/24 06:08:25;;;;;;;2.70;2.50;;;13.60;99.90;;;;;;5071426;28;20078;-55
2023/04/24 06:10:51;;;;;;;6.00;2.42;;;13.70;99.90;;;;;;5071433;28;20044;-56
2023/04/24 06:13:16;;;;;;;2.72;2.30;;;14.00;99.90;;;;;;5071176;28;20526;-52
2023/04/24 06:15:43;;;;;;;2.50;2.30;;;14.10;99.90;;;;;;5053219;28;20028;-49
2023/04/24 06:18:10;;;;;;;5.40;3.03;;;14.50;99.90;;;;;;5071882;28;20104;-49
2023/04/24 06:20:35;;;;;;;2.13;2.03;;;14.80;99.90;;;;;;5053478;28;20484;-51
2023/04/24 06:23:01;;;;;;;3.67;2.38;;;14.90;99.90;;;;;;5071324;28;20033;-49
2023/04/24 06:25:27;;;;;;;5.15;2.45;;;14.70;99.90;;;;;;5071155;28;20052;-53
2023/04/24 06:27:53;;;;;;;2.30;2.15;;;14.50;99.90;;;;;;5053403;28;20033;-51
2023/04/24 06:30:19;;;;;;;2.90;2.47;;;14.30;99.90;;;;;;5053217;28;20052;-51
2023/04/24 06:32:44;;;;;;;4.60;2.58;;;13.90;99.90;;;;;;5071037;28;20028;-52
2023/04/24 06:35:11;;;;;;;2.90;2.70;;;13.40;99.90;;;;;;5071069;28;20471;-52
2023/04/24 06:37:36;;;;;;;3.20;2.97;;;13.00;99.90;;;;;;5071317;28;20126;-54
2023/04/24 06:40:02;;;;;;;5.10;2.95;;;12.80;99.90;;;;;;5071122;28;20052;-51
2023/04/24 06:42:28;;;;;;;3.65;2.55;;;12.70;99.90;;;;;;5070995;28;20028;-49
2023/04/24 06:44:53;;;;;;;4.47;2.75;;;12.80;99.90;;;;;;5071045;28;20028;-49
2023/04/24 06:47:19;;;;;;;6.55;2.72;;;13.00;99.90;;;;;;5071009;28;20484;-50
2023/04/24 06:49:44;;;;;;;3.42;3.03;;;13.00;99.90;;;;;;5052960;28;20020;-54
2023/04/24 06:52:10;;;;;;;6.90;3.10;;;13.00;99.90;;;;;;5071013;28;20090;-51
2023/04/24 06:54:35;;;;;;;5.72;2.92;;;13.00;99.90;;;;;;5070612;28;20052;-50
2023/04/24 06:57:02;;;;;;;4.35;3.25;;;13.10;99.90;;;;;;5070637;28;20031;-53
2023/04/24 06:59:28;;;;;;;3.97;2.97;;;13.60;99.90;;;;;;5052865;28;20036;-51
2023/04/24 07:01:54;;;;;;;3.45;3.20;;;13.60;99.90;;;;;;5071019;28;20025;-49
2023/04/24 07:04:20;;;;;;;3.28;2.95;;;13.40;99.90;;;;;;5070709;28;20434;-50
2023/04/24 07:06:48;;;;;;;3.55;3.25;;;13.20;99.90;;;;;;5052895;28;20025;-53
2023/04/24 07:09:15;;;;;;;9.23;3.40;;;12.90;99.90;;;;;;5070768;28;20025;-50
2023/04/24 07:11:41;;;;;;;3.97;3.15;;;12.80;99.90;;;;;;5070727;28;20284;-53
2023/04/24 07:14:07;;;;;;;3.75;3.40;;;12.60;99.90;;;;;;5056103;28;20067;-50
2023/04/24 07:16:32;;;;;;;2.58;2.40;;;12.70;99.90;;;;;;5074273;28;20024;-52
2023/04/24 07:18:58;;;;;;;4.15;2.92;;;13.10;99.90;;;;;;5074520;28;20025;-53
2023/04/24 07:21:24;;;;;;;4.68;2.65;;;13.10;99.90;;;;;;5056445;28;20021;-57
2023/04/24 07:23:50;;;;;;;3.00;2.75;;;12.90;99.90;;;;;;5074213;28;20024;-53
2023/04/24 07:26:15;;;;;;;4.03;3.03;;;12.80;99.90;;;;;;5074329;28;20103;-48
2023/04/24 07:28:41;;;;;;;3.28;2.97;;;12.80;99.90;;;;;;5069083;28;20036;-51
2023/04/24 07:31:08;;;;;;;5.45;1.83;;;13.00;99.90;;;;;;5065418;28;20040;-52
2023/04/24 07:33:33;;;;;;;2.08;1.98;;;13.60;99.90;;;;;;5073819;28;20028;-51
2023/04/24 07:35:59;;;;;;;3.13;1.67;;;14.50;99.90;;;;;;5073966;28;20025;-53
2023/04/24 07:38:25;;;;;;;2.00;1.90;;;15.40;99.90;;;;;;5071176;28;20035;-48
2023/04/24 07:40:51;;;;;;;2.72;1.85;;;16.30;99.90;;;;;;5074139;28;20051;-49
2023/04/24 07:43:17;;;;;;;3.13;1.80;;;16.40;98.40;;;;;;5073889;28;20123;-53
2023/04/24 07:45:43;;;;;;;2.45;1.85;;;16.00;98.80;;;;;;5073721;28;20020;-52
2023/04/24 07:48:08;;;;;;;3.25;1.73;;;16.10;99.60;;;;;;5073377;28;20112;-49
2023/04/24 07:50:35;;;;;;;1.80;1.33;;;16.70;99.00;;;;;;5073774;28;20028;-49
2023/04/24 07:53:01;;;;;;;2.42;1.67;;;17.90;97.30;;;;;;5055520;28;20078;-58
2023/04/24 07:55:26;;;;;;;1.25;1.20;;;18.60;95.60;;;;;;5073161;28;21244;-51
2023/04/24 07:57:52;;;;;;;1.63;1.50;;;18.40;94.50;;;;;;5074096;28;20032;-53
2023/04/24 08:00:18;;;;;;;5.28;1.60;;;17.90;95.50;;;;;;5066943;28;20103;-54
2023/04/24 08:02:43;;;;;;;1.27;1.17;;;18.00;94.50;;;;;;5053764;28;20028;-55
2023/04/24 08:05:09;;;;;;;1.65;1.55;;;18.40;94.10;;;;;;5064773;28;20492;-50
2023/04/24 08:07:35;;;;;;;2.97;1.42;;;18.50;94.10;;;;;;5073584;28;20017;-52
2023/04/24 08:10:01;;;;;;;2.40;1.52;;;18.30;94.10;;;;;;5073836;28;20476;-51
2023/04/24 08:12:28;;;;;;;1.55;1.45;;;17.70;94.90;;;;;;5073809;28;20099;-48
2023/04/24 08:14:54;;;;;;;1.48;1.45;;;17.60;95.50;;;;;;5073674;28;20038;-49
2023/04/24 08:17:20;;;;;;;2.22;1.50;;;18.10;94.70;;;;;;5073631;28;20494;-48
2023/04/24 08:19:48;;;;;;;2.15;1.50;;;18.30;94.70;;;;;;5070659;28;21315;-48
2023/04/24 08:22:14;;;;;;;2.00;1.70;;;18.60;94.40;;;;;;5035910;28;20066;-48
2023/04/24 08:24:40;;;;;;;3.30;1.80;;;19.20;93.70;;;;;;5053001;28;20091;-49
2023/04/24 08:27:06;;;;;;;3.35;1.75;;;19.90;92.50;;;;;;5053442;28;20029;-49
2023/04/24 08:29:31;;;;;;;1.88;1.70;;;19.90;91.20;;;;;;5052929;28;20060;-49
2023/04/24 08:31:57;;;;;;;1.80;1.70;;;19.70;91.60;;;;;;5053307;28;20025;-47
2023/04/24 08:34:23;;;;;;;1.70;1.60;;;19.00;92.00;;;;;;5053008;28;20079;-49
2023/04/24 08:36:48;;;;;;;4.53;1.73;;;18.30;92.80;;;;;;5053123;28;20048;-50
2023/04/24 08:39:14;;;;;;;4.07;1.48;;;18.20;93.40;;;;;;5035080;28;20025;-47
2023/04/24 08:41:45;;;;;;;2.15;2.05;;;18.50;93.30;;;;;;5053059;28;20074;-47
2023/04/24 08:44:16;;;;;;;1.52;1.42;;;18.20;93.90;;;;;;5053068;28;20408;-50
2023/04/24 08:46:45;;;;;;;3.15;2.17;;;17.20;95.00;;;;;;5053279;28;20025;-48
2023/04/24 08:49:12;;;;;;;1.92;1.83;;;16.60;95.90;;;;;;5061288;28;20028;-45
2023/04/24 08:51:39;;;;;;;2.20;2.00;;;15.90;96.20;;;;;;5072933;28;20078;-48
2023/04/24 08:54:05;;;;;;;2.55;2.17;;;15.10;97.20;;;;;;5072726;28;20553;-50
2023/04/24 08:56:33;;;;;;;2.33;2.13;;;14.60;98.60;;;;;;5072982;28;20052;-47
2023/04/24 08:58:59;;;;;;;2.00;1.75;;;14.10;99.70;;;;;;5072956;28;20489;-46
2023/04/24 09:01:25;;;;;;;2.13;1.73;;;13.70;99.90;;;;;;5072672;28;20032;-46
2023/04/24 09:03:53;;;;;;;1.95;1.85;;;13.60;99.90;;;;;;5073030;28;20032;-46
2023/04/24 09:06:21;;;;;;;1.85;1.75;;;13.40;99.90;;;;;;5072476;28;20042;-47
2023/04/24 09:08:50;;;;;;;7.70;2.25;;;13.50;99.90;;;;;;5073012;28;20024;-48
2023/04/24 09:11:16;;;;;;;2.90;1.90;;;13.10;99.90;;;;;;5072446;28;20031;-48
2023/04/24 09:13:43;;;;;;;2.55;2.30;;;12.90;99.90;;;;;;5073031;28;20045;-48
2023/04/24 09:16:08;;;;;;;3.45;1.85;;;12.70;99.90;;;;;;5073229;28;20541;-49
2023/04/24 09:18:35;;;;;;;3.47;2.05;;;12.70;99.90;;;;;;5073378;28;20036;-48
2023/04/24 09:21:07;;;;;;;2.42;1.95;;;12.60;99.90;;;;;;5072991;28;20017;-52
2023/04/24 09:23:33;;;;;;;2.38;2.17;;;12.50;99.90;;;;;;5072902;28;20553;-49
2023/04/24 09:26:00;;;;;;;3.25;1.70;;;12.40;99.90;;;;;;5072595;28;20117;-54
2023/04/24 09:28:36;;;;;;;7.43;1.83;;;12.50;99.90;;;;;;5073455;28;20024;-50
2023/04/24 09:31:22;;;;;;;1.98;1.40;;;12.60;99.90;;;;;;5072680;28;20036;-47
2023/04/24 09:33:59;;;;;;;2.35;1.38;;;12.70;99.90;;;;;;5072375;28;20111;-50
2023/04/24 09:36:32;;;;;;;10.00;5.97;;;13.00;99.90;;;;;;5072141;28;20365;-48
2023/04/24 09:38:59;;;;;;;4.10;3.35;;;13.30;99.90;;;;;;5073404;28;20032;-47
2023/04/24 09:41:26;;;;;;;5.90;3.22;;;13.40;99.90;;;;;;5073228;28;20028;-47
2023/04/24 09:43:53;;;;;;;2.17;1.90;;;13.30;99.90;;;;;;5073208;28;20613;-50
2023/04/24 09:46:21;;;;;;;1.10;1.10;;;13.10;99.90;;;;;;5053850;28;20103;-46
2023/04/24 09:48:46;;;;;;;1.63;1.50;;;12.90;99.90;;;;;;5056441;28;20158;-46
2023/04/24 09:51:12;;;;;;;2.40;1.45;;;12.80;99.90;;;;;;5071573;28;20519;-48
2023/04/24 09:53:41;;;;;;;0.90;0.90;;;12.90;99.90;;;;;;5070879;28;20111;-51
2023/04/24 09:56:10;;;;;;;4.45;1.63;;;13.00;99.90;;;;;;5065288;28;20132;-46
2023/04/24 09:58:36;;;;;;;4.68;1.52;;;13.20;99.90;;;;;;5054919;28;20032;-47
2023/04/24 10:01:02;;;;;;;2.47;1.42;;;13.30;99.90;;;;;;5049511;28;20041;-53
2023/04/24 10:03:32;;;;;;;5.93;1.73;;;13.30;99.90;;;;;;5048816;28;20698;-51
2023/04/24 10:06:01;;;;;;;1.50;1.48;;;13.30;99.90;;;;;;5050407;28;20028;-48
2023/04/24 10:08:33;;;;;;;1.98;1.88;;;13.10;99.90;;;;;;5032705;28;20031;-48
2023/04/24 10:11:00;;;;;;;3.88;1.67;;;13.10;99.90;;;;;;5049747;28;20032;-50
2023/04/24 10:13:26;;;;;;;3.38;1.73;;;13.00;99.90;;;;;;5051345;28;20079;-50
2023/04/24 10:15:52;;;;;;;1.25;1.15;;;12.80;99.90;;;;;;5051289;28;20025;-47
2023/04/24 10:18:18;;;;;;;1.60;1.50;;;12.70;99.90;;;;;;5051363;28;20017;-48
2023/04/24 10:20:45;;;;;;;1.42;1.33;;;12.80;99.90;;;;;;5051174;28;20043;-50
2023/04/24 10:23:11;;;;;;;1.73;1.60;;;12.80;99.90;;;;;;5051649;28;20033;-48
2023/04/24 10:25:37;;;;;;;2.05;1.95;;;12.80;99.90;;;;;;5051097;28;20503;-50
2023/04/24 10:28:03;;;;;;;1.70;1.60;;;13.00;99.90;;;;;;5051297;28;20037;-46
2023/04/24 10:30:34;;;;;;;2.17;2.08;;;13.30;99.90;;;;;;5051104;28;20025;-52
2023/04/24 10:33:04;;;;;;;2.17;1.70;;;13.50;99.90;;;;;;5051225;28;20048;-53
2023/04/24 10:35:37;;;;;;;1.50;1.40;;;13.60;99.90;;;;;;5051020;28;20025;-52
2023/04/24 10:38:09;;;;;;;2.72;1.80;;;13.90;99.90;;;;;;5051429;28;20097;-49
2023/04/24 10:40:36;;;;;;;2.47;1.63;;;13.90;99.90;;;;;;5051545;28;20029;-47
2023/04/24 10:43:10;;;;;;;4.20;1.92;;;13.90;99.90;;;;;;5050962;28;20096;-48
2023/04/24 10:45:37;;;;;;;8.13;1.60;;;14.10;99.90;;;;;;5068171;28;20492;-47
2023/04/24 10:48:05;;;;;;;1.70;1.60;;;14.20;99.90;;;;;;5073136;28;20424;-48
2023/04/24 10:50:57;;;;;;;1.75;1.65;;;13.90;99.90;;;;;;5055693;28;20051;-49
2023/04/24 10:53:27;;;;;;;1.60;1.52;;;13.70;99.90;;;;;;5050533;28;20069;-50
2023/04/24 10:55:57;;;;;;;2.10;1.90;;;13.40;99.90;;;;;;5055242;28;20029;-53
2023/04/24 10:58:24;;;;;;;3.35;2.10;;;13.20;99.90;;;;;;5055074;28;20029;-51
2023/04/24 11:00:58;;;;;;;2.50;2.30;;;12.80;99.90;;;;;;5036798;28;20045;-50
2023/04/24 11:03:31;;;;;;;2.40;2.20;;;12.50;99.90;;;;;;5054628;28;20031;-48
2023/04/24 11:06:02;;;;;;;2.40;2.20;;;12.20;99.90;;;;;;5054608;28;20033;-54
2023/04/24 11:08:30;;;;;;;6.32;3.40;;;11.90;99.90;;;;;;5054528;28;20110;-51
2023/04/24 11:11:10;;;;;;;4.60;3.00;;;11.70;99.90;;;;;;5036982;28;20393;-51
2023/04/24 11:14:15;;;;;;;3.63;3.03;;;11.60;99.90;;;;;;5053349;28;20028;-49
2023/04/24 11:16:52;;;;;;;2.58;1.88;;;11.50;99.90;;;;;;4953737;29;20171;-48
2023/04/24 11:19:23;;;;;;;2.38;2.17;;;11.50;99.90;;;;;;5043803;28;20056;-50
2023/04/24 11:22:04;;;;;;;2.72;2.22;;;11.50;99.90;;;;;;5036631;28;20017;-50
2023/04/24 11:24:37;;;;;;;2.35;2.25;;;11.50;99.90;;;;;;5071965;28;20062;-47
2023/04/24 11:27:20;;;;;;;4.43;1.80;;;11.30;99.90;;;;;;5074365;28;20028;-48
2023/04/24 11:30:00;;;;;;;2.33;2.00;;;11.30;99.90;;;;;;5074128;28;20085;-51
2023/04/24 11:32:42;;;;;;;2.53;2.35;;;11.20;99.90;;;;;;5054035;28;20082;-52
2023/04/24 11:35:12;;;;;;;1.75;1.65;;;11.20;99.90;;;;;;5053745;28;20056;-50
2023/04/24 11:37:40;;;;;;;1.80;1.70;;;11.30;99.90;;;;;;5036008;28;20021;-53
2023/04/24 11:40:08;;;;;;;3.15;1.92;;;11.30;99.90;;;;;;5054163;28;20017;-49
2023/04/24 11:42:35;;;;;;;1.65;1.55;;;11.30;99.90;;;;;;5053841;28;20507;-51
2023/04/24 11:45:01;;;;;;;5.28;1.90;;;11.30;99.90;;;;;;5059825;22;20044;-51
2023/04/24 11:47:33;;;;;;;4.10;1.77;;;11.20;99.90;;;;;;5052297;28;20139;-51
2023/04/24 11:49:59;;;;;;;4.05;2.50;;;11.20;99.90;;;;;;5053429;28;20033;-50
2023/04/24 11:52:25;;;;;;;10.07;2.20;;;11.20;99.90;;;;;;5054485;28;20019;-48
2023/04/24 11:54:51;;;;;;;1.40;1.40;;;11.20;99.90;;;;;;5053252;28;20041;-46
2023/04/24 11:57:21;;;;;;;4.55;1.90;;;11.30;99.90;;;;;;5052366;28;20533;-49
2023/04/24 11:59:47;;;;;;;1.52;1.40;;;11.30;99.90;;;;;;5053001;28;20100;-50
2023/04/24 12:02:26;;;;;;;1.60;1.50;;;11.40;99.90;;;;;;5052914;28;20057;-48
2023/04/24 12:04:53;;;;;;;1.50;1.40;;;11.60;99.90;;;;;;5053281;28;20025;-46
2023/04/24 12:07:19;;;;;;;1.98;1.88;;;11.80;99.90;;;;;;5053644;28;20091;-51
2023/04/24 12:09:56;;;;;;;2.13;1.92;;;12.00;99.90;;;;;;5053828;28;20121;-53
2023/04/24 12:12:25;;;;;;;7.70;2.03;;;12.10;99.90;;;;;;5035250;28;20100;-45
2023/04/24 12:15:00;;;;;;;28.75;19.08;;;12.20;99.90;;;;;;5040406;28;20399;-49
2023/04/24 12:17:30;;;;;;;;;;;12.40;99.90;;;;;;5039663;28;20029;-51
2023/04/24 12:20:01;;;;;;;2.65;2.45;;;12.50;99.90;;;;;;5048011;28;19912;-51
2023/04/24 12:22:26;;;;;;;4.05;2.75;;;12.60;99.90;;;;;;5052409;28;20025;-54
2023/04/24 12:24:56;;;;;;;3.85;2.58;;;12.70;99.90;;;;;;5049748;28;20036;-49
2023/04/24 12:27:22;;;;;;;3.80;2.75;;;12.90;99.90;;;;;;5050910;28;20040;-49
2023/04/24 12:29:53;;;;;;;4.35;2.75;;;12.90;99.90;;;;;;5053124;28;20025;-49
2023/04/24 12:32:18;;;;;;;3.38;3.08;;;13.00;99.90;;;;;;5051743;28;20075;-51
2023/04/24 12:34:45;;;;;;;8.02;2.58;;;13.30;99.90;;;;;;5052585;28;20476;-53
2023/04/24 12:37:13;;;;;;;3.10;2.55;;;13.50;99.90;;;;;;5053011;28;20122;-48
2023/04/24 12:39:38;;;;;;;5.32;3.20;;;13.60;99.90;;;;;;5053007;28;20029;-48
2023/04/24 12:42:04;;;;;;;5.25;4.00;;;13.60;99.90;;;;;;5052885;28;20113;-50
2023/04/24 12:44:34;;;;;;;3.35;3.05;;;13.60;99.90;;;;;;5052396;28;20411;-48
2023/04/24 12:47:02;;;;;;;4.85;2.65;;;13.60;99.90;;;;;;5052941;28;20020;-51